Florian, Minnesota
Current Conditions -  °F | °C
As of 6:15 PM on Sunday 25 Jan 2015 (Local Time) from KTVF Reporting Station
Broken Clouds Broken Clouds  
Wind Chill: 10°   Ceiling: 2000
Heat Index: 21°   Visibility: 10mi
Dew Point: 14°   Wind: 10mph
Humidity: 74%   Direction: 200°SSW
Pressure: 29.94"   Gusts: NA
Location:  48.4566°N, 96.4523°W
Report Text: KTVF 260015Z AUTO 20009KT 10SM BKN020 M06/M10 A2994 RMK AO1
Loading
Personal Weather Stations






























Interactive Weather Map New forecast layout! Learn more

10-Day Weather Forecast

Advertisements
Track Severe Weather on mobile